sensor_id;sensor_type;location;lat;lon;timestamp;pressure;altitude;pressure_sealevel;temperature;humidity
33286;BME280;19656;50.096;20.014;2023-04-27T00:01:38;99153.27;;;7.64;49.73
33286;BME280;19656;50.096;20.014;2023-04-27T00:06:42;99153.38;;;7.62;49.78
33286;BME280;19656;50.096;20.014;2023-04-27T00:11:45;99152.15;;;7.62;49.93
33286;BME280;19656;50.096;20.014;2023-04-27T00:16:49;99152.52;;;7.65;49.85
33286;BME280;19656;50.096;20.014;2023-04-27T00:21:52;99150.43;;;7.61;49.90
33286;BME280;19656;50.096;20.014;2023-04-27T00:26:56;99152.20;;;7.57;50.08
33286;BME280;19656;50.096;20.014;2023-04-27T00:31:59;99153.74;;;7.54;50.22
33286;BME280;19656;50.096;20.014;2023-04-27T00:37:03;99152.61;;;7.52;50.26
33286;BME280;19656;50.096;20.014;2023-04-27T00:42:07;99148.20;;;7.52;50.58
33286;BME280;19656;50.096;20.014;2023-04-27T00:47:15;99151.48;;;7.53;50.52
33286;BME280;19656;50.096;20.014;2023-04-27T00:52:20;99144.35;;;7.55;50.63
33286;BME280;19656;50.096;20.014;2023-04-27T00:57:23;99147.88;;;7.55;50.71
33286;BME280;19656;50.096;20.014;2023-04-27T01:02:28;99148.60;;;7.55;50.72
33286;BME280;19656;50.096;20.014;2023-04-27T01:07:32;99152.01;;;7.54;50.72
33286;BME280;19656;50.096;20.014;2023-04-27T01:12:36;99156.56;;;7.51;50.71
33286;BME280;19656;50.096;20.014;2023-04-27T01:17:40;99157.85;;;7.49;50.91
33286;BME280;19656;50.096;20.014;2023-04-27T01:22:44;99164.73;;;7.53;50.88
33286;BME280;19656;50.096;20.014;2023-04-27T01:27:48;99166.56;;;7.59;50.83
33286;BME280;19656;50.096;20.014;2023-04-27T01:32:51;99175.58;;;7.59;50.82
33286;BME280;19656;50.096;20.014;2023-04-27T01:37:56;99173.72;;;7.57;50.74
33286;BME280;19656;50.096;20.014;2023-04-27T01:43:03;99167.30;;;7.59;50.86
33286;BME280;19656;50.096;20.014;2023-04-27T01:48:10;99171.03;;;7.51;51.05
33286;BME280;19656;50.096;20.014;2023-04-27T01:53:13;99177.88;;;7.44;51.32
33286;BME280;19656;50.096;20.014;2023-04-27T01:58:17;99176.83;;;7.40;51.47
33286;BME280;19656;50.096;20.014;2023-04-27T02:03:20;99179.58;;;7.38;51.67
33286;BME280;19656;50.096;20.014;2023-04-27T02:08:25;99182.05;;;7.34;51.73
33286;BME280;19656;50.096;20.014;2023-04-27T02:13:28;99179.60;;;7.30;51.97
33286;BME280;19656;50.096;20.014;2023-04-27T02:18:32;99177.64;;;7.26;52.22
33286;BME280;19656;50.096;20.014;2023-04-27T02:23:35;99176.69;;;7.24;52.42
33286;BME280;19656;50.096;20.014;2023-04-27T02:28:38;99173.69;;;7.21;52.47
33286;BME280;19656;50.096;20.014;2023-04-27T02:33:42;99175.95;;;7.17;52.71
33286;BME280;19656;50.096;20.014;2023-04-27T02:38:45;99180.70;;;7.14;52.81
33286;BME280;19656;50.096;20.014;2023-04-27T02:43:49;99183.74;;;7.17;53.32
33286;BME280;19656;50.096;20.014;2023-04-27T02:48:54;99180.27;;;7.20;53.77
33286;BME280;19656;50.096;20.014;2023-04-27T02:53:58;99186.13;;;7.15;53.67
33286;BME280;19656;50.096;20.014;2023-04-27T02:59:02;99182.67;;;7.09;53.79
33286;BME280;19656;50.096;20.014;2023-04-27T03:04:06;99184.86;;;7.03;54.33
33286;BME280;19656;50.096;20.014;2023-04-27T03:09:12;99187.30;;;7.04;55.03
33286;BME280;19656;50.096;20.014;2023-04-27T03:14:16;99192.11;;;6.99;54.77
33286;BME280;19656;50.096;20.014;2023-04-27T03:19:19;99197.10;;;6.94;54.93
33286;BME280;19656;50.096;20.014;2023-04-27T03:24:23;99198.36;;;6.90;55.13
33286;BME280;19656;50.096;20.014;2023-04-27T03:29:28;99204.34;;;6.86;55.72
33286;BME280;19656;50.096;20.014;2023-04-27T03:34:31;99210.27;;;6.92;55.62
33286;BME280;19656;50.096;20.014;2023-04-27T03:39:34;99213.59;;;6.88;55.48
33286;BME280;19656;50.096;20.014;2023-04-27T03:44:38;99220.34;;;6.91;55.38
33286;BME280;19656;50.096;20.014;2023-04-27T03:49:41;99221.86;;;6.93;55.42
33286;BME280;19656;50.096;20.014;2023-04-27T03:54:44;99223.79;;;6.89;55.46
33286;BME280;19656;50.096;20.014;2023-04-27T03:59:48;99231.48;;;6.82;55.70
33286;BME280;19656;50.096;20.014;2023-04-27T04:04:52;99238.62;;;6.76;56.02
33286;BME280;19656;50.096;20.014;2023-04-27T04:09:55;99237.95;;;6.76;56.20
33286;BME280;19656;50.096;20.014;2023-04-27T04:14:58;99245.76;;;6.79;56.45
33286;BME280;19656;50.096;20.014;2023-04-27T04:20:02;99249.23;;;6.84;56.32
33286;BME280;19656;50.096;20.014;2023-04-27T04:25:11;99252.40;;;6.96;56.06
33286;BME280;19656;50.096;20.014;2023-04-27T04:30:16;99252.87;;;7.10;55.68
33286;BME280;19656;50.096;20.014;2023-04-27T04:35:19;99254.06;;;7.22;55.53
33286;BME280;19656;50.096;20.014;2023-04-27T04:40:24;99255.56;;;7.32;54.99
33286;BME280;19656;50.096;20.014;2023-04-27T04:45:28;99255.30;;;7.34;54.84
33286;BME280;19656;50.096;20.014;2023-04-27T04:50:32;99257.05;;;7.38;54.80
33286;BME280;19656;50.096;20.014;2023-04-27T04:55:35;99259.77;;;7.45;54.38
33286;BME280;19656;50.096;20.014;2023-04-27T05:00:40;99258.99;;;7.53;54.18
33286;BME280;19656;50.096;20.014;2023-04-27T05:05:43;99263.23;;;7.61;54.01
33286;BME280;19656;50.096;20.014;2023-04-27T05:10:52;99262.02;;;7.64;53.93
33286;BME280;19656;50.096;20.014;2023-04-27T05:16:04;99267.50;;;7.72;53.53
33286;BME280;19656;50.096;20.014;2023-04-27T05:21:15;99272.01;;;7.77;53.34
33286;BME280;19656;50.096;20.014;2023-04-27T05:26:22;99277.11;;;7.81;53.30
33286;BME280;19656;50.096;20.014;2023-04-27T05:31:25;99281.53;;;7.89;53.03
33286;BME280;19656;50.096;20.014;2023-04-27T05:36:29;99284.48;;;7.98;52.97
33286;BME280;19656;50.096;20.014;2023-04-27T05:41:32;99292.27;;;8.09;53.04
33286;BME280;19656;50.096;20.014;2023-04-27T05:46:36;99293.48;;;8.17;52.76
33286;BME280;19656;50.096;20.014;2023-04-27T05:51:40;99296.27;;;8.24;52.41
33286;BME280;19656;50.096;20.014;2023-04-27T05:56:44;99298.67;;;8.22;52.42
33286;BME280;19656;50.096;20.014;2023-04-27T06:01:47;99306.51;;;8.28;52.40
33286;BME280;19656;50.096;20.014;2023-04-27T06:06:51;99304.69;;;8.41;52.22
33286;BME280;19656;50.096;20.014;2023-04-27T06:11:54;99308.80;;;8.51;52.15
33286;BME280;19656;50.096;20.014;2023-04-27T06:16:58;99312.08;;;8.60;51.75
33286;BME280;19656;50.096;20.014;2023-04-27T06:22:01;99310.83;;;8.63;51.48
33286;BME280;19656;50.096;20.014;2023-04-27T06:27:06;99309.00;;;8.68;51.41
33286;BME280;19656;50.096;20.014;2023-04-27T06:32:09;99310.00;;;8.77;51.47
33286;BME280;19656;50.096;20.014;2023-04-27T06:37:13;99314.35;;;8.89;51.24
33286;BME280;19656;50.096;20.014;2023-04-27T06:42:19;99312.33;;;8.94;51.09
33286;BME280;19656;50.096;20.014;2023-04-27T06:47:22;99316.53;;;9.05;50.96
33286;BME280;19656;50.096;20.014;2023-04-27T06:52:26;99319.17;;;9.09;50.47
33286;BME280;19656;50.096;20.014;2023-04-27T06:57:29;99324.41;;;9.17;50.44
33286;BME280;19656;50.096;20.014;2023-04-27T07:02:33;99324.48;;;9.32;50.07
33286;BME280;19656;50.096;20.014;2023-04-27T07:07:37;99323.20;;;9.47;49.82
33286;BME280;19656;50.096;20.014;2023-04-27T07:12:41;99316.86;;;9.63;49.46
33286;BME280;19656;50.096;20.014;2023-04-27T07:17:44;99316.05;;;9.88;49.92
33286;BME280;19656;50.096;20.014;2023-04-27T07:22:48;99318.91;;;10.06;48.02
33286;BME280;19656;50.096;20.014;2023-04-27T07:27:52;99316.63;;;10.18;46.52
33286;BME280;19656;50.096;20.014;2023-04-27T07:32:55;99317.84;;;10.35;46.43
33286;BME280;19656;50.096;20.014;2023-04-27T07:37:59;99321.13;;;10.31;45.60
33286;BME280;19656;50.096;20.014;2023-04-27T07:43:04;99323.87;;;10.26;45.23
33286;BME280;19656;50.096;20.014;2023-04-27T07:48:17;99332.28;;;10.31;45.35
33286;BME280;19656;50.096;20.014;2023-04-27T07:53:21;99330.60;;;10.39;45.59
33286;BME280;19656;50.096;20.014;2023-04-27T07:58:24;99327.10;;;10.44;44.97
33286;BME280;19656;50.096;20.014;2023-04-27T08:03:27;99321.38;;;10.57;44.33
33286;BME280;19656;50.096;20.014;2023-04-27T08:08:31;99315.95;;;10.74;43.26
33286;BME280;19656;50.096;20.014;2023-04-27T08:13:35;99315.20;;;10.93;42.62
33286;BME280;19656;50.096;20.014;2023-04-27T08:18:38;99316.48;;;11.08;41.91
33286;BME280;19656;50.096;20.014;2023-04-27T08:23:42;99316.92;;;11.12;41.20
33286;BME280;19656;50.096;20.014;2023-04-27T08:28:45;99321.77;;;11.02;41.21
33286;BME280;19656;50.096;20.014;2023-04-27T08:33:50;99320.38;;;11.02;40.57
33286;BME280;19656;50.096;20.014;2023-04-27T08:38:54;99323.96;;;11.04;40.67
33286;BME280;19656;50.096;20.014;2023-04-27T08:43:58;99329.41;;;11.05;40.58
33286;BME280;19656;50.096;20.014;2023-04-27T08:49:02;99334.38;;;11.08;40.55
33286;BME280;19656;50.096;20.014;2023-04-27T08:54:06;99333.73;;;11.01;40.63
33286;BME280;19656;50.096;20.014;2023-04-27T08:59:15;99332.90;;;10.97;40.42
33286;BME280;19656;50.096;20.014;2023-04-27T09:04:20;99325.70;;;10.90;40.50
33286;BME280;19656;50.096;20.014;2023-04-27T09:09:24;99325.36;;;10.93;40.47
33286;BME280;19656;50.096;20.014;2023-04-27T09:14:27;99320.43;;;10.95;40.55
33286;BME280;19656;50.096;20.014;2023-04-27T09:19:33;99317.86;;;11.02;39.70
33286;BME280;19656;50.096;20.014;2023-04-27T09:24:36;99318.56;;;11.11;38.50
33286;BME280;19656;50.096;20.014;2023-04-27T09:29:40;99315.33;;;11.21;37.67
33286;BME280;19656;50.096;20.014;2023-04-27T09:34:45;99311.92;;;11.36;37.09
33286;BME280;19656;50.096;20.014;2023-04-27T09:39:48;99311.09;;;11.61;36.83
33286;BME280;19656;50.096;20.014;2023-04-27T09:44:53;99301.02;;;11.89;37.51
33286;BME280;19656;50.096;20.014;2023-04-27T09:49:58;99304.30;;;11.96;36.69
33286;BME280;19656;50.096;20.014;2023-04-27T09:55:08;99308.17;;;11.82;36.28
33286;BME280;19656;50.096;20.014;2023-04-27T10:00:47;99310.52;;;11.73;36.62
33286;BME280;19656;50.096;20.014;2023-04-27T10:11:19;99315.83;;;11.56;36.40
33286;BME280;19656;50.096;20.014;2023-04-27T10:16:24;99313.29;;;11.46;37.03
33286;BME280;19656;50.096;20.014;2023-04-27T10:21:27;99318.67;;;11.45;38.14
33286;BME280;19656;50.096;20.014;2023-04-27T10:26:32;99315.59;;;11.43;38.57
33286;BME280;19656;50.096;20.014;2023-04-27T10:31:46;99320.52;;;11.38;38.95
33286;BME280;19656;50.096;20.014;2023-04-27T10:37:07;99319.96;;;11.35;39.06
33286;BME280;19656;50.096;20.014;2023-04-27T10:42:10;99314.30;;;11.44;39.13
33286;BME280;19656;50.096;20.014;2023-04-27T10:47:15;99313.11;;;11.51;39.35
33286;BME280;19656;50.096;20.014;2023-04-27T10:52:19;99307.92;;;11.90;39.06
33286;BME280;19656;50.096;20.014;2023-04-27T10:57:23;99303.14;;;12.42;37.92
33286;BME280;19656;50.096;20.014;2023-04-27T11:02:28;99304.84;;;12.99;36.86
33286;BME280;19656;50.096;20.014;2023-04-27T11:07:31;99310.73;;;13.46;35.68
33286;BME280;19656;50.096;20.014;2023-04-27T11:12:36;99318.40;;;13.44;35.23
33286;BME280;19656;50.096;20.014;2023-04-27T11:17:39;99323.79;;;13.04;35.80
33286;BME280;19656;50.096;20.014;2023-04-27T11:22:44;99325.95;;;12.82;36.35
33286;BME280;19656;50.096;20.014;2023-04-27T11:27:48;99329.45;;;12.78;36.58
33286;BME280;19656;50.096;20.014;2023-04-27T11:32:51;99334.47;;;12.66;36.12
33286;BME280;19656;50.096;20.014;2023-04-27T11:37:56;99332.27;;;12.60;36.27
33286;BME280;19656;50.096;20.014;2023-04-27T11:43:02;99338.41;;;12.47;36.30
33286;BME280;19656;50.096;20.014;2023-04-27T11:48:12;99332.90;;;12.33;36.43
33286;BME280;19656;50.096;20.014;2023-04-27T11:53:16;99330.98;;;12.24;36.77
33286;BME280;19656;50.096;20.014;2023-04-27T11:58:21;99329.05;;;12.23;36.94
33286;BME280;19656;50.096;20.014;2023-04-27T12:03:30;99325.52;;;12.26;36.99
33286;BME280;19656;50.096;20.014;2023-04-27T12:08:34;99324.00;;;12.55;37.37
33286;BME280;19656;50.096;20.014;2023-04-27T12:13:38;99317.33;;;13.10;36.74
33286;BME280;19656;50.096;20.014;2023-04-27T12:18:41;99317.45;;;13.08;36.49
33286;BME280;19656;50.096;20.014;2023-04-27T12:23:45;99315.23;;;12.91;37.00
33286;BME280;19656;50.096;20.014;2023-04-27T12:28:48;99319.09;;;12.73;37.31
33286;BME280;19656;50.096;20.014;2023-04-27T12:33:52;99319.84;;;12.53;37.61
33286;BME280;19656;50.096;20.014;2023-04-27T12:39:10;99330.02;;;12.42;37.87
33286;BME280;19656;50.096;20.014;2023-04-27T12:44:17;99330.08;;;12.36;39.16
33286;BME280;19656;50.096;20.014;2023-04-27T12:49:21;99329.34;;;12.30;39.73
33286;BME280;19656;50.096;20.014;2023-04-27T12:54:25;99328.91;;;12.31;39.24
33286;BME280;19656;50.096;20.014;2023-04-27T12:59:28;99333.96;;;12.33;38.54
33286;BME280;19656;50.096;20.014;2023-04-27T13:04:32;99326.20;;;12.60;38.15
33286;BME280;19656;50.096;20.014;2023-04-27T13:09:36;99317.02;;;13.35;38.01
33286;BME280;19656;50.096;20.014;2023-04-27T13:14:39;99313.11;;;14.18;36.76
33286;BME280;19656;50.096;20.014;2023-04-27T13:19:44;99309.52;;;14.65;35.14
33286;BME280;19656;50.096;20.014;2023-04-27T13:24:48;99307.00;;;14.61;34.96
33286;BME280;19656;50.096;20.014;2023-04-27T13:29:51;99312.30;;;14.42;35.06
33286;BME280;19656;50.096;20.014;2023-04-27T13:34:55;99318.27;;;14.16;34.71
33286;BME280;19656;50.096;20.014;2023-04-27T13:39:58;99322.05;;;13.81;34.85
33286;BME280;19656;50.096;20.014;2023-04-27T13:45:02;99320.59;;;13.61;36.43
33286;BME280;19656;50.096;20.014;2023-04-27T13:50:08;99319.10;;;13.41;36.97
33286;BME280;19656;50.096;20.014;2023-04-27T13:55:12;99327.10;;;13.20;37.70
33286;BME280;19656;50.096;20.014;2023-04-27T14:00:17;99337.38;;;13.00;38.15
33286;BME280;19656;50.096;20.014;2023-04-27T14:05:21;99338.92;;;12.80;38.81
33286;BME280;19656;50.096;20.014;2023-04-27T14:10:24;99344.33;;;12.63;39.78
33286;BME280;19656;50.096;20.014;2023-04-27T14:15:28;99342.52;;;12.41;41.30
33286;BME280;19656;50.096;20.014;2023-04-27T14:20:39;99340.16;;;12.28;40.24
33286;BME280;19656;50.096;20.014;2023-04-27T14:25:46;99347.08;;;12.20;40.17
33286;BME280;19656;50.096;20.014;2023-04-27T14:30:50;99354.41;;;12.14;40.34
33286;BME280;19656;50.096;20.014;2023-04-27T14:35:54;99355.66;;;12.20;39.11
33286;BME280;19656;50.096;20.014;2023-04-27T14:40:58;99340.39;;;12.30;38.66
33286;BME280;19656;50.096;20.014;2023-04-27T14:46:17;99339.15;;;12.49;38.01
33286;BME280;19656;50.096;20.014;2023-04-27T14:51:23;99344.11;;;12.60;37.35
33286;BME280;19656;50.096;20.014;2023-04-27T14:56:27;99346.92;;;12.61;37.01
33286;BME280;19656;50.096;20.014;2023-04-27T15:01:31;99350.46;;;12.59;36.49
33286;BME280;19656;50.096;20.014;2023-04-27T15:06:34;99348.07;;;12.57;36.81
33286;BME280;19656;50.096;20.014;2023-04-27T15:11:38;99349.09;;;12.50;36.82
33286;BME280;19656;50.096;20.014;2023-04-27T15:16:41;99354.30;;;12.46;37.51
33286;BME280;19656;50.096;20.014;2023-04-27T15:21:44;99353.89;;;12.63;37.15
33286;BME280;19656;50.096;20.014;2023-04-27T15:26:48;99355.57;;;12.89;36.72
33286;BME280;19656;50.096;20.014;2023-04-27T15:37:43;99357.17;;;13.21;35.91
33286;BME280;19656;50.096;20.014;2023-04-27T15:42:47;99352.73;;;13.32;35.37
33286;BME280;19656;50.096;20.014;2023-04-27T15:47:51;99354.86;;;13.42;34.87
33286;BME280;19656;50.096;20.014;2023-04-27T15:52:55;99354.99;;;13.92;34.23
33286;BME280;19656;50.096;20.014;2023-04-27T15:57:59;99350.23;;;14.50;33.58
33286;BME280;19656;50.096;20.014;2023-04-27T16:03:03;99347.08;;;14.96;32.76
33286;BME280;19656;50.096;20.014;2023-04-27T16:08:12;99350.85;;;15.10;32.38
33286;BME280;19656;50.096;20.014;2023-04-27T16:13:15;99350.80;;;15.41;31.85
33286;BME280;19656;50.096;20.014;2023-04-27T16:18:18;99354.02;;;15.59;31.84
33286;BME280;19656;50.096;20.014;2023-04-27T16:23:21;99351.66;;;15.17;32.03
33286;BME280;19656;50.096;20.014;2023-04-27T16:28:26;99362.56;;;14.75;32.72
33286;BME280;19656;50.096;20.014;2023-04-27T16:33:29;99363.61;;;14.38;32.94
33286;BME280;19656;50.096;20.014;2023-04-27T16:38:33;99368.58;;;14.19;33.42
33286;BME280;19656;50.096;20.014;2023-04-27T16:43:39;99370.00;;;13.94;33.87
33286;BME280;19656;50.096;20.014;2023-04-27T16:48:42;99375.30;;;13.69;34.28
33286;BME280;19656;50.096;20.014;2023-04-27T16:53:46;99380.58;;;13.41;34.75
33286;BME280;19656;50.096;20.014;2023-04-27T16:58:49;99377.84;;;13.21;35.40
33286;BME280;19656;50.096;20.014;2023-04-27T17:04:01;99379.86;;;13.07;36.86
33286;BME280;19656;50.096;20.014;2023-04-27T17:09:05;99387.55;;;12.96;36.64
33286;BME280;19656;50.096;20.014;2023-04-27T17:14:10;99387.70;;;12.80;36.56
33286;BME280;19656;50.096;20.014;2023-04-27T17:19:17;99390.35;;;12.69;37.05
33286;BME280;19656;50.096;20.014;2023-04-27T17:24:26;99387.07;;;12.60;37.01
33286;BME280;19656;50.096;20.014;2023-04-27T17:29:30;99397.79;;;12.50;37.24
33286;BME280;19656;50.096;20.014;2023-04-27T17:34:34;99397.28;;;12.42;37.89
33286;BME280;19656;50.096;20.014;2023-04-27T17:46:08;99402.43;;;12.14;39.26
33286;BME280;19656;50.096;20.014;2023-04-27T17:51:12;99408.38;;;12.04;39.64
33286;BME280;19656;50.096;20.014;2023-04-27T17:56:15;99415.64;;;11.93;39.82
33286;BME280;19656;50.096;20.014;2023-04-27T18:07:28;99424.87;;;11.76;40.16
33286;BME280;19656;50.096;20.014;2023-04-27T18:12:33;99426.02;;;11.59;41.94
33286;BME280;19656;50.096;20.014;2023-04-27T18:17:36;99430.43;;;11.42;41.96
33286;BME280;19656;50.096;20.014;2023-04-27T18:22:42;99434.70;;;11.35;41.98
33286;BME280;19656;50.096;20.014;2023-04-27T18:27:57;99439.64;;;11.27;42.87
33286;BME280;19656;50.096;20.014;2023-04-27T18:33:01;99441.31;;;11.17;44.34
33286;BME280;19656;50.096;20.014;2023-04-27T18:38:04;99446.18;;;11.06;45.58
33286;BME280;19656;50.096;20.014;2023-04-27T18:43:08;99452.55;;;10.97;44.67
33286;BME280;19656;50.096;20.014;2023-04-27T18:48:13;99455.85;;;10.89;44.81
33286;BME280;19656;50.096;20.014;2023-04-27T18:53:26;99456.02;;;10.92;45.59
33286;BME280;19656;50.096;20.014;2023-04-27T18:58:30;99459.14;;;10.90;44.51
33286;BME280;19656;50.096;20.014;2023-04-27T19:03:33;99463.66;;;10.80;44.79
33286;BME280;19656;50.096;20.014;2023-04-27T19:08:37;99463.66;;;10.71;45.33
33286;BME280;19656;50.096;20.014;2023-04-27T19:13:40;99466.83;;;10.61;46.29
33286;BME280;19656;50.096;20.014;2023-04-27T19:18:45;99469.45;;;10.53;46.68
33286;BME280;19656;50.096;20.014;2023-04-27T19:23:49;99470.73;;;10.45;46.83
33286;BME280;19656;50.096;20.014;2023-04-27T19:28:52;99477.02;;;10.34;46.96
33286;BME280;19656;50.096;20.014;2023-04-27T19:33:57;99475.33;;;10.19;47.48
33286;BME280;19656;50.096;20.014;2023-04-27T19:39:06;99473.63;;;10.07;48.49
33286;BME280;19656;50.096;20.014;2023-04-27T19:44:09;99472.30;;;9.99;49.17
33286;BME280;19656;50.096;20.014;2023-04-27T19:49:13;99471.36;;;9.90;49.52
33286;BME280;19656;50.096;20.014;2023-04-27T19:54:18;99471.81;;;9.77;49.95
33286;BME280;19656;50.096;20.014;2023-04-27T19:59:22;99469.69;;;9.67;50.25
33286;BME280;19656;50.096;20.014;2023-04-27T20:04:26;99474.82;;;9.57;50.47
33286;BME280;19656;50.096;20.014;2023-04-27T20:09:30;99475.45;;;9.44;50.99
33286;BME280;19656;50.096;20.014;2023-04-27T20:14:34;99476.19;;;9.33;51.59
33286;BME280;19656;50.096;20.014;2023-04-27T20:19:40;99479.06;;;9.21;52.02
33286;BME280;19656;50.096;20.014;2023-04-27T20:24:44;99482.63;;;9.14;52.44
33286;BME280;19656;50.096;20.014;2023-04-27T20:29:48;99492.77;;;9.06;52.94
33286;BME280;19656;50.096;20.014;2023-04-27T20:34:51;99491.33;;;8.95;53.17
33286;BME280;19656;50.096;20.014;2023-04-27T20:39:55;99495.99;;;8.87;53.63
33286;BME280;19656;50.096;20.014;2023-04-27T20:44:58;99497.66;;;8.74;53.82
33286;BME280;19656;50.096;20.014;2023-04-27T20:50:02;99500.25;;;8.64;54.11
33286;BME280;19656;50.096;20.014;2023-04-27T20:55:06;99504.64;;;8.53;54.59
33286;BME280;19656;50.096;20.014;2023-04-27T21:00:10;99508.33;;;8.46;55.09
33286;BME280;19656;50.096;20.014;2023-04-27T21:05:13;99507.70;;;8.36;55.19
33286;BME280;19656;50.096;20.014;2023-04-27T21:10:17;99508.79;;;8.27;55.60
33286;BME280;19656;50.096;20.014;2023-04-27T21:15:20;99512.77;;;8.17;55.09
33286;BME280;19656;50.096;20.014;2023-04-27T21:20:24;99510.96;;;8.06;55.20
33286;BME280;19656;50.096;20.014;2023-04-27T21:25:27;99511.11;;;7.99;55.50
33286;BME280;19656;50.096;20.014;2023-04-27T21:30:31;99513.42;;;7.90;55.59
33286;BME280;19656;50.096;20.014;2023-04-27T21:35:35;99515.09;;;7.85;55.67
33286;BME280;19656;50.096;20.014;2023-04-27T21:40:38;99515.88;;;7.78;55.92
33286;BME280;19656;50.096;20.014;2023-04-27T21:45:43;99512.80;;;7.72;56.18
33286;BME280;19656;50.096;20.014;2023-04-27T21:50:46;99517.73;;;7.64;56.31
33286;BME280;19656;50.096;20.014;2023-04-27T21:55:50;99519.93;;;7.54;56.28
33286;BME280;19656;50.096;20.014;2023-04-27T22:00:53;99516.42;;;7.45;56.75
33286;BME280;19656;50.096;20.014;2023-04-27T22:05:57;99520.08;;;7.38;56.91
33286;BME280;19656;50.096;20.014;2023-04-27T22:17:26;99528.41;;;7.27;57.55
33286;BME280;19656;50.096;20.014;2023-04-27T22:22:30;99533.11;;;7.25;57.68
33286;BME280;19656;50.096;20.014;2023-04-27T22:27:33;99538.46;;;7.19;57.63
33286;BME280;19656;50.096;20.014;2023-04-27T22:32:46;99540.24;;;7.10;57.92
33286;BME280;19656;50.096;20.014;2023-04-27T22:37:49;99538.88;;;7.05;58.15
33286;BME280;19656;50.096;20.014;2023-04-27T22:42:53;99539.44;;;6.95;58.08
33286;BME280;19656;50.096;20.014;2023-04-27T22:48:31;99543.90;;;6.89;58.32
33286;BME280;19656;50.096;20.014;2023-04-27T22:53:35;99538.48;;;6.83;58.14
33286;BME280;19656;50.096;20.014;2023-04-27T22:58:38;99533.73;;;6.78;58.18
33286;BME280;19656;50.096;20.014;2023-04-27T23:03:42;99529.16;;;6.78;58.63
33286;BME280;19656;50.096;20.014;2023-04-27T23:15:10;99522.11;;;6.69;58.41
33286;BME280;19656;50.096;20.014;2023-04-27T23:20:14;99512.37;;;6.60;58.41
33286;BME280;19656;50.096;20.014;2023-04-27T23:25:30;99514.02;;;6.54;58.74
33286;BME280;19656;50.096;20.014;2023-04-27T23:30:34;99523.65;;;6.52;59.19
33286;BME280;19656;50.096;20.014;2023-04-27T23:35:38;99527.14;;;6.52;59.26
33286;BME280;19656;50.096;20.014;2023-04-27T23:40:42;99523.67;;;6.55;59.80
33286;BME280;19656;50.096;20.014;2023-04-27T23:45:49;99518.61;;;6.59;59.77
33286;BME280;19656;50.096;20.014;2023-04-27T23:51:03;99523.05;;;6.67;59.21
33286;BME280;19656;50.096;20.014;2023-04-27T23:56:17;99535.23;;;6.71;59.11
